createdAt,value
2022-08-17T00:00:43.800Z,0.00
2022-08-17T00:01:19.300Z,0.00
2022-08-17T00:02:48.492Z,0.00
2022-08-17T00:03:47.355Z,0.00
2022-08-17T00:05:29.539Z,0.00
2022-08-17T00:06:54.331Z,0.00
2022-08-17T00:07:30.483Z,0.00
2022-08-17T00:08:30.484Z,0.00
2022-08-17T00:09:30.446Z,0.00
2022-08-17T00:10:32.418Z,0.00
2022-08-17T00:11:30.441Z,0.00
2022-08-17T00:12:42.317Z,0.00
2022-08-17T00:13:30.402Z,0.00
2022-08-17T00:14:30.411Z,0.00
2022-08-17T00:15:30.421Z,0.00
2022-08-17T00:16:55.360Z,0.00
2022-08-17T00:17:30.397Z,0.00
2022-08-17T00:18:53.910Z,0.00
2022-08-17T00:19:30.354Z,0.00
2022-08-17T00:20:33.559Z,0.00
2022-08-17T00:21:56.337Z,0.00
2022-08-17T00:22:40.120Z,0.00
2022-08-17T00:23:30.313Z,0.00
2022-08-17T00:24:30.302Z,0.00
2022-08-17T00:25:30.309Z,0.00
2022-08-17T00:26:43.686Z,0.00
2022-08-17T00:27:30.314Z,0.00
2022-08-17T00:28:31.070Z,0.00
2022-08-17T00:29:30.280Z,0.00
2022-08-17T00:30:30.227Z,0.00
2022-08-17T00:31:30.234Z,0.00
2022-08-17T00:33:23.147Z,0.00
2022-08-17T00:33:30.801Z,0.00
2022-08-17T00:34:30.308Z,0.00
2022-08-17T00:35:30.204Z,0.00
2022-08-17T00:36:30.167Z,0.00
2022-08-17T00:37:30.174Z,0.00
2022-08-17T00:38:30.408Z,0.00
2022-08-17T00:39:30.208Z,0.00
2022-08-17T00:40:40.846Z,0.00
2022-08-17T00:41:30.973Z,0.00
2022-08-17T00:42:31.226Z,0.00
2022-08-17T00:43:30.115Z,0.00
2022-08-17T00:44:30.302Z,0.00
2022-08-17T00:45:30.129Z,0.00
2022-08-17T00:46:30.064Z,0.00
2022-08-17T00:47:30.068Z,0.00
2022-08-17T00:48:30.865Z,0.00
2022-08-17T00:49:30.054Z,0.00
2022-08-17T00:50:30.022Z,0.00
2022-08-17T00:51:30.045Z,0.00
2022-08-17T00:52:30.024Z,0.00
2022-08-17T00:53:36.129Z,0.00
2022-08-17T00:54:30.001Z,0.00
2022-08-17T00:55:29.996Z,0.00
2022-08-17T00:56:30.034Z,0.00
2022-08-17T00:57:29.971Z,0.00
2022-08-17T00:58:35.810Z,0.00
2022-08-17T00:59:29.974Z,0.00
2022-08-17T01:00:29.927Z,0.00
2022-08-17T01:01:29.947Z,0.00
2022-08-17T01:02:29.885Z,0.00
2022-08-17T01:03:29.928Z,0.00
2022-08-17T01:04:29.906Z,0.00
2022-08-17T01:05:29.859Z,0.00
2022-08-17T01:06:30.046Z,0.00
2022-08-17T01:07:29.880Z,0.00
2022-08-17T01:08:29.838Z,0.00
2022-08-17T01:09:29.868Z,0.00
2022-08-17T01:10:59.222Z,0.00
2022-08-17T01:11:29.831Z,0.00
2022-08-17T01:12:29.784Z,0.00
2022-08-17T01:13:29.795Z,0.00
2022-08-17T01:14:29.796Z,0.00
2022-08-17T01:15:29.780Z,0.00
2022-08-17T01:16:29.754Z,0.00
2022-08-17T01:17:57.306Z,0.00
2022-08-17T01:18:29.769Z,0.00
2022-08-17T01:19:29.729Z,0.00
2022-08-17T01:20:29.848Z,0.00
2022-08-17T01:21:29.713Z,0.00
2022-08-17T01:22:29.788Z,0.00
2022-08-17T01:23:29.689Z,0.00
2022-08-17T01:24:30.130Z,0.00
2022-08-17T01:25:29.731Z,0.00
2022-08-17T01:26:29.775Z,0.00
2022-08-17T01:27:29.683Z,0.00
2022-08-17T01:28:53.191Z,0.00
2022-08-17T01:29:29.687Z,0.00
2022-08-17T01:30:57.365Z,0.00
2022-08-17T01:31:29.970Z,0.00
2022-08-17T01:32:29.888Z,0.00
2022-08-17T01:33:29.689Z,0.00
2022-08-17T01:34:42.814Z,0.00
2022-08-17T01:35:29.584Z,0.00
2022-08-17T01:36:29.595Z,0.00
2022-08-17T01:37:29.549Z,0.00
2022-08-17T01:38:29.564Z,0.00
2022-08-17T01:39:29.692Z,0.00
2022-08-17T01:40:29.565Z,0.00
2022-08-17T01:41:29.534Z,0.00
2022-08-17T01:42:29.486Z,0.00
2022-08-17T01:43:29.474Z,0.00
2022-08-17T01:44:29.468Z,0.00
2022-08-17T01:45:29.478Z,0.00
2022-08-17T01:46:29.453Z,0.00
2022-08-17T01:47:29.898Z,0.00
2022-08-17T01:48:29.466Z,0.00
2022-08-17T01:49:29.434Z,0.00
2022-08-17T01:50:29.400Z,0.00
2022-08-17T01:51:29.384Z,0.00
2022-08-17T01:52:29.449Z,0.00
2022-08-17T01:53:29.350Z,0.00
2022-08-17T01:54:29.402Z,0.00
2022-08-17T01:55:29.339Z,0.00
2022-08-17T01:56:29.393Z,0.00
2022-08-17T01:57:29.321Z,0.00
2022-08-17T01:58:29.336Z,0.00
2022-08-17T01:59:29.293Z,0.00
2022-08-17T02:00:59.370Z,0.00
2022-08-17T02:01:29.320Z,0.00
2022-08-17T02:02:30.975Z,0.00
2022-08-17T02:03:29.258Z,0.00
2022-08-17T02:04:29.293Z,0.00
2022-08-17T02:05:29.235Z,0.00
2022-08-17T02:06:29.240Z,0.00
2022-08-17T02:07:29.220Z,0.00
2022-08-17T02:08:37.002Z,0.00
2022-08-17T02:09:29.760Z,0.00
2022-08-17T02:10:33.713Z,0.00
2022-08-17T02:11:29.175Z,0.00
2022-08-17T02:12:39.105Z,0.00
2022-08-17T02:13:29.147Z,0.00
2022-08-17T02:14:29.155Z,0.00
2022-08-17T02:15:29.142Z,0.00
2022-08-17T02:16:29.133Z,0.00
2022-08-17T02:17:29.113Z,0.00
2022-08-17T02:18:29.727Z,0.00
2022-08-17T02:19:30.747Z,0.00
2022-08-17T02:20:41.366Z,0.00
2022-08-17T02:21:30.216Z,0.00
2022-08-17T02:22:31.364Z,0.00
2022-08-17T02:23:30.662Z,0.00
2022-08-17T02:25:00.651Z,0.00
2022-08-17T02:25:29.055Z,0.00
2022-08-17T02:26:29.745Z,0.00
2022-08-17T02:27:29.038Z,0.00
2022-08-17T02:28:29.012Z,0.00
2022-08-17T02:29:29.764Z,0.00
2022-08-17T02:31:00.007Z,0.00
2022-08-17T02:31:29.061Z,0.00
2022-08-17T02:32:29.731Z,0.00
2022-08-17T02:33:37.205Z,0.00
2022-08-17T02:34:28.945Z,0.00
2022-08-17T02:35:29.076Z,0.00
2022-08-17T02:36:29.009Z,0.00
2022-08-17T02:37:28.914Z,0.00
2022-08-17T02:39:27.940Z,0.00
2022-08-17T02:40:35.966Z,0.00
2022-08-17T02:41:31.990Z,0.00
2022-08-17T02:42:28.187Z,0.00
2022-08-17T02:43:26.090Z,0.00
2022-08-17T02:44:39.632Z,0.00
2022-08-17T02:45:26.349Z,0.00
2022-08-17T02:46:25.382Z,0.00
2022-08-17T02:47:25.387Z,0.00
2022-08-17T02:48:31.172Z,0.00
2022-08-17T02:49:25.450Z,0.00
2022-08-17T02:50:25.452Z,0.00
2022-08-17T02:51:25.336Z,0.00
2022-08-17T02:52:43.038Z,0.00
2022-08-17T02:53:25.767Z,0.00
2022-08-17T02:54:40.030Z,0.00
2022-08-17T02:55:25.382Z,0.00
2022-08-17T02:56:25.277Z,0.00
2022-08-17T02:57:25.355Z,0.00
2022-08-17T02:58:34.549Z,0.00
2022-08-17T02:59:25.668Z,0.00
2022-08-17T03:00:25.253Z,0.00
2022-08-17T03:01:25.338Z,0.00
2022-08-17T03:02:25.223Z,0.00
2022-08-17T03:03:25.215Z,0.00
2022-08-17T03:04:25.228Z,0.00
2022-08-17T03:05:25.199Z,0.00
2022-08-17T03:06:25.201Z,0.00
2022-08-17T03:07:25.182Z,0.00
2022-08-17T03:08:25.152Z,0.00
2022-08-17T03:09:25.157Z,0.00
2022-08-17T03:10:25.136Z,0.00
2022-08-17T03:11:25.162Z,0.00
2022-08-17T03:12:25.156Z,0.00
2022-08-17T03:13:25.119Z,0.00
2022-08-17T03:14:26.183Z,0.00
2022-08-17T03:15:25.101Z,0.00
2022-08-17T03:16:25.070Z,0.00
2022-08-17T03:17:25.132Z,0.00
2022-08-17T03:18:26.249Z,0.00
2022-08-17T03:19:25.060Z,0.00
2022-08-17T03:20:25.035Z,0.00
2022-08-17T03:21:25.022Z,0.00
2022-08-17T03:22:37.176Z,0.00
2022-08-17T03:23:25.560Z,0.00
2022-08-17T03:24:28.630Z,0.00
2022-08-17T03:25:24.993Z,0.00
2022-08-17T03:26:24.974Z,0.00
2022-08-17T03:27:24.974Z,0.00
2022-08-17T03:28:24.978Z,0.00
2022-08-17T03:29:24.962Z,0.00
2022-08-17T03:30:24.996Z,0.00
2022-08-17T03:31:24.914Z,0.00
2022-08-17T03:32:24.918Z,0.00
2022-08-17T03:33:25.023Z,0.00
2022-08-17T03:34:25.058Z,0.00
2022-08-17T03:35:32.985Z,0.00
2022-08-17T03:36:24.874Z,0.00
2022-08-17T03:37:25.000Z,0.00
2022-08-17T03:39:18.244Z,0.00
2022-08-17T03:40:55.286Z,0.00
2022-08-17T03:41:19.231Z,1.00
2022-08-17T03:42:32.095Z,0.00
2022-08-17T03:43:19.243Z,0.00
2022-08-17T03:44:19.870Z,0.00
2022-08-17T03:45:19.150Z,1.00
2022-08-17T03:46:28.100Z,1.00
2022-08-17T03:47:19.783Z,0.00
2022-08-17T03:48:19.177Z,0.00
2022-08-17T03:49:19.088Z,2.00
2022-08-17T03:50:19.104Z,1.00
2022-08-17T03:51:19.068Z,1.00
2022-08-17T03:52:19.129Z,0.00
2022-08-17T03:53:19.252Z,2.00
2022-08-17T03:54:19.058Z,1.00
2022-08-17T03:55:19.071Z,1.00
2022-08-17T03:56:55.403Z,2.00
2022-08-17T03:57:23.575Z,3.00
2022-08-17T04:00:21.376Z,5.00
2022-08-17T04:00:26.318Z,4.00
2022-08-17T04:02:39.736Z,14.00
2022-08-17T04:03:40.553Z,12.00
2022-08-17T04:05:15.244Z,13.00
2022-08-17T04:05:40.506Z,15.00
2022-08-17T04:06:40.488Z,12.00
2022-08-17T04:07:42.201Z,12.00
2022-08-17T04:08:40.450Z,11.00
2022-08-17T04:10:12.605Z,14.00
2022-08-17T04:10:44.828Z,17.00
2022-08-17T04:11:40.539Z,21.00
2022-08-17T04:12:42.139Z,24.00
2022-08-17T04:13:42.321Z,28.00
2022-08-17T04:14:53.147Z,32.00
2022-08-17T04:15:40.418Z,36.00
2022-08-17T04:16:40.384Z,40.00
2022-08-17T04:17:41.347Z,68.00
2022-08-17T04:18:40.370Z,95.00
2022-08-17T04:19:40.388Z,99.00
2022-08-17T04:20:40.903Z,106.00
2022-08-17T04:21:40.333Z,113.00
2022-08-17T04:22:40.330Z,124.00
2022-08-17T04:23:46.404Z,134.00
2022-08-17T04:24:40.331Z,146.00
2022-08-17T04:25:57.355Z,153.00
2022-08-17T04:27:33.427Z,187.00
2022-08-17T04:28:34.110Z,180.00
2022-08-17T04:29:54.351Z,198.00
2022-08-17T04:31:45.789Z,250.00
2022-08-17T04:33:00.497Z,224.00
2022-08-17T04:34:55.937Z,305.00
2022-08-17T04:35:57.009Z,294.00
2022-08-17T04:37:03.378Z,304.00
2022-08-17T04:38:06.218Z,321.00
2022-08-17T04:40:07.307Z,358.00
2022-08-17T04:41:08.316Z,332.00
2022-08-17T04:42:59.997Z,395.00
2022-08-17T04:43:59.619Z,372.00
2022-08-17T04:45:08.925Z,385.00
2022-08-17T04:45:59.600Z,398.00
2022-08-17T04:47:05.701Z,427.00
2022-08-17T04:49:12.982Z,543.00
2022-08-17T04:50:14.918Z,511.00
2022-08-17T04:51:13.539Z,541.00
2022-08-17T04:52:32.343Z,566.00
2022-08-17T04:53:13.640Z,617.00
2022-08-17T04:54:13.628Z,655.00
2022-08-17T04:55:15.160Z,652.00
2022-08-17T04:57:29.243Z,886.00
2022-08-17T05:00:45.058Z,959.00
2022-08-17T05:01:46.043Z,966.00
2022-08-17T05:02:50.175Z,962.00
2022-08-17T05:04:38.040Z,1015.00
2022-08-17T05:05:39.030Z,1043.00
2022-08-17T05:06:39.051Z,1051.00
2022-08-17T05:08:44.913Z,983.00
2022-08-17T05:10:56.334Z,1043.00
2022-08-17T05:11:57.503Z,1008.00
2022-08-17T05:13:55.910Z,1142.00
2022-08-17T05:15:03.006Z,1086.00
2022-08-17T05:15:56.940Z,1154.00
2022-08-17T05:17:09.427Z,1207.00
2022-08-17T05:17:56.862Z,1195.00
2022-08-17T05:18:56.846Z,1169.00
2022-08-17T05:20:03.168Z,1176.00
2022-08-17T05:20:56.842Z,1171.00
2022-08-17T05:21:56.954Z,1157.00
2022-08-17T05:22:56.795Z,1113.00
2022-08-17T05:23:56.792Z,1191.00
2022-08-17T05:24:56.916Z,1291.00
2022-08-17T05:26:06.285Z,1415.00
2022-08-17T05:26:57.509Z,1443.00
2022-08-17T05:27:56.751Z,1373.00
2022-08-17T05:28:59.419Z,1368.00
2022-08-17T05:29:56.821Z,1385.00
2022-08-17T05:30:56.725Z,1435.00
2022-08-17T05:31:56.722Z,1460.00
2022-08-17T05:32:57.047Z,1536.00
2022-08-17T05:34:02.804Z,1562.00
2022-08-17T05:34:56.703Z,1572.00
2022-08-17T05:35:56.683Z,1573.00
2022-08-17T05:36:56.669Z,1540.00
2022-08-17T05:37:56.686Z,1553.00
2022-08-17T05:38:56.640Z,1575.00
2022-08-17T05:39:56.994Z,1615.00
2022-08-17T05:41:02.754Z,1701.00
2022-08-17T05:41:56.619Z,1808.00
2022-08-17T05:42:56.665Z,1934.00
2022-08-17T05:43:56.827Z,1997.00
2022-08-17T05:44:56.603Z,2103.00
2022-08-17T05:45:56.718Z,2271.00
2022-08-17T05:46:56.715Z,2370.00
2022-08-17T05:48:03.665Z,2404.00
2022-08-17T05:48:56.565Z,2390.00
2022-08-17T05:49:56.545Z,2512.00
2022-08-17T05:51:08.173Z,2469.00
2022-08-17T05:52:47.023Z,2205.00
2022-08-17T05:53:47.956Z,2299.00
2022-08-17T05:54:47.965Z,2160.00
2022-08-17T05:55:47.990Z,2098.00
2022-08-17T05:56:47.880Z,2086.00
2022-08-17T05:57:54.148Z,2093.00
2022-08-17T05:58:48.615Z,2048.00
2022-08-17T05:59:53.958Z,2069.00
2022-08-17T06:00:47.985Z,2174.00
2022-08-17T06:01:47.839Z,2403.00
2022-08-17T06:02:48.187Z,2548.00
2022-08-17T06:03:47.813Z,2670.00
2022-08-17T06:04:47.840Z,2753.00
2022-08-17T06:05:59.423Z,3002.00
2022-08-17T06:07:39.216Z,3226.00
2022-08-17T06:08:40.205Z,3299.00
2022-08-17T06:09:40.163Z,3181.00
2022-08-17T06:10:40.298Z,3184.00
2022-08-17T06:11:40.169Z,3406.00
2022-08-17T06:12:40.137Z,3604.00
2022-08-17T06:13:40.136Z,3665.00
2022-08-17T06:14:40.128Z,3676.00
2022-08-17T06:15:40.138Z,3835.00
2022-08-17T06:16:40.173Z,3967.00
2022-08-17T06:17:40.088Z,4117.00
2022-08-17T06:18:40.057Z,4262.00
2022-08-17T06:19:40.106Z,4484.00
2022-08-17T06:20:40.036Z,4798.00
2022-08-17T06:21:41.056Z,4947.00
2022-08-17T06:22:40.063Z,4781.00
2022-08-17T06:23:40.039Z,4492.00
2022-08-17T06:24:40.049Z,4127.00
2022-08-17T06:25:40.021Z,3808.00
2022-08-17T06:26:43.287Z,3682.00
2022-08-17T06:27:39.976Z,3402.00
2022-08-17T06:28:40.306Z,3169.00
2022-08-17T06:29:39.985Z,3017.00
2022-08-17T06:30:58.539Z,2965.00
2022-08-17T06:31:40.328Z,3039.00
2022-08-17T06:32:41.352Z,3134.00
2022-08-17T06:33:39.910Z,3228.00
2022-08-17T06:34:39.899Z,3092.00
2022-08-17T06:35:39.991Z,2927.00
2022-08-17T06:36:39.932Z,2704.00
2022-08-17T06:37:39.894Z,2638.00
2022-08-17T06:38:39.852Z,2752.00
2022-08-17T06:39:39.911Z,2779.00
2022-08-17T06:40:39.846Z,2787.00
2022-08-17T06:41:39.846Z,2850.00
2022-08-17T06:42:55.077Z,3015.00
2022-08-17T06:43:39.822Z,3166.00
2022-08-17T06:44:42.243Z,3210.00
2022-08-17T06:45:39.793Z,3169.00
2022-08-17T06:46:39.786Z,3072.00
2022-08-17T06:47:39.784Z,2993.00
2022-08-17T06:48:39.820Z,2918.00
2022-08-17T06:49:39.748Z,2898.00
2022-08-17T06:50:39.748Z,2871.00
2022-08-17T06:51:39.761Z,2738.00
2022-08-17T06:52:45.812Z,2671.00
2022-08-17T06:53:39.796Z,2600.00
2022-08-17T06:54:39.710Z,2402.00
2022-08-17T06:55:39.682Z,2320.00
2022-08-17T06:56:53.104Z,2259.00
2022-08-17T06:57:42.277Z,2229.00
2022-08-17T06:58:40.708Z,2212.00
2022-08-17T06:59:55.244Z,2226.00
2022-08-17T07:00:39.649Z,2213.00
2022-08-17T07:01:39.705Z,2253.00
2022-08-17T07:02:53.231Z,2273.00
2022-08-17T07:03:39.598Z,2239.00
2022-08-17T07:04:39.576Z,2207.00
2022-08-17T07:05:39.765Z,2160.00
2022-08-17T07:06:39.577Z,2040.00
2022-08-17T07:07:39.565Z,1951.00
2022-08-17T07:08:39.528Z,1969.00
2022-08-17T07:09:40.683Z,1948.00
2022-08-17T07:10:39.526Z,1932.00
2022-08-17T07:11:39.558Z,1920.00
2022-08-17T07:12:39.501Z,1958.00
2022-08-17T07:13:39.491Z,2099.00
2022-08-17T07:14:39.477Z,2338.00
2022-08-17T07:15:39.479Z,2548.00
2022-08-17T07:16:39.465Z,2694.00
2022-08-17T07:17:47.184Z,2975.00
2022-08-17T07:18:39.429Z,3542.00
2022-08-17T07:19:39.667Z,3992.00
2022-08-17T07:20:45.830Z,4162.00
2022-08-17T07:21:39.421Z,4045.00
2022-08-17T07:22:57.238Z,3886.00
2022-08-17T07:23:39.389Z,3871.00
2022-08-17T07:24:39.451Z,3957.00
2022-08-17T07:25:39.405Z,3970.00
2022-08-17T07:26:39.373Z,3979.00
2022-08-17T07:27:39.386Z,3966.00
2022-08-17T07:28:39.732Z,3931.00
2022-08-17T07:29:39.322Z,3847.00
2022-08-17T07:30:46.854Z,3743.00
2022-08-17T07:31:39.350Z,3583.00
2022-08-17T07:32:39.335Z,3472.00
2022-08-17T07:33:39.300Z,3379.00
2022-08-17T07:34:39.279Z,3263.00
2022-08-17T07:35:41.229Z,3060.00
2022-08-17T07:36:39.254Z,2797.00
2022-08-17T07:37:39.311Z,2587.00
2022-08-17T07:38:39.246Z,2426.00
2022-08-17T07:39:59.698Z,2312.00
2022-08-17T07:40:39.255Z,2237.00
2022-08-17T07:41:53.439Z,2220.00
2022-08-17T07:42:44.519Z,2278.00
2022-08-17T07:43:39.193Z,2367.00
2022-08-17T07:44:39.167Z,2429.00
2022-08-17T07:45:40.155Z,2393.00
2022-08-17T07:46:39.144Z,2321.00
2022-08-17T07:47:39.137Z,2306.00
2022-08-17T07:48:39.137Z,2376.00
2022-08-17T07:49:39.129Z,2474.00
2022-08-17T07:50:39.086Z,2532.00
2022-08-17T07:51:39.096Z,2562.00
2022-08-17T07:52:51.854Z,2593.00
2022-08-17T07:53:43.780Z,2589.00
2022-08-17T07:54:39.052Z,2499.00
2022-08-17T07:55:39.092Z,2358.00
2022-08-17T07:56:39.081Z,2269.00
2022-08-17T07:57:39.124Z,2186.00
2022-08-17T07:58:39.036Z,2121.00
2022-08-17T07:59:39.149Z,2035.00
2022-08-17T08:00:38.975Z,1999.00
2022-08-17T08:01:39.663Z,2030.00
2022-08-17T08:02:38.959Z,2114.00
2022-08-17T08:03:38.975Z,2247.00
2022-08-17T08:05:49.953Z,2505.00
2022-08-17T08:07:49.628Z,3201.00
2022-08-17T08:09:42.139Z,3582.00
2022-08-17T08:10:45.208Z,3495.00
2022-08-17T08:11:44.379Z,3574.00
2022-08-17T08:12:41.786Z,3604.00
2022-08-17T08:13:42.072Z,3777.00
2022-08-17T08:14:41.724Z,4047.00
2022-08-17T08:15:45.217Z,4398.00
2022-08-17T08:16:41.681Z,4542.00
2022-08-17T08:17:41.701Z,4466.00
2022-08-17T08:18:55.529Z,4544.00
2022-08-17T08:19:41.651Z,4800.00
2022-08-17T08:20:53.926Z,5219.00
2022-08-17T08:21:41.628Z,5779.00
2022-08-17T08:22:41.622Z,6459.00
2022-08-17T08:23:41.604Z,6993.00
2022-08-17T08:24:41.612Z,7433.00
2022-08-17T08:25:41.621Z,7863.00
2022-08-17T08:26:41.581Z,8381.00
2022-08-17T08:27:41.563Z,9018.00
2022-08-17T08:28:41.618Z,9280.00
2022-08-17T08:29:41.618Z,9420.00
2022-08-17T08:30:41.565Z,9300.00
2022-08-17T08:31:42.474Z,9108.00
2022-08-17T08:32:41.568Z,8531.00
2022-08-17T08:33:41.502Z,10543.00
2022-08-17T08:34:58.842Z,8603.00
2022-08-17T08:35:41.492Z,7132.00
2022-08-17T08:37:13.032Z,5608.00
2022-08-17T08:37:43.237Z,5047.00
2022-08-17T08:38:41.454Z,4918.00
2022-08-17T08:39:41.503Z,5073.00
2022-08-17T08:40:41.450Z,5446.00
2022-08-17T08:41:43.289Z,5775.00
2022-08-17T08:42:41.404Z,5505.00
2022-08-17T08:43:41.414Z,4862.00
2022-08-17T08:45:00.534Z,4242.00
2022-08-17T08:45:41.478Z,4041.00
2022-08-17T08:46:41.371Z,3989.00
2022-08-17T08:48:56.014Z,3611.00
2022-08-17T08:50:03.807Z,3858.00
2022-08-17T08:50:52.782Z,3422.00
2022-08-17T08:51:52.763Z,3081.00
2022-08-17T08:52:52.744Z,3081.00
2022-08-17T08:53:52.746Z,3186.00
2022-08-17T08:54:52.707Z,3089.00
2022-08-17T08:55:52.717Z,3123.00
2022-08-17T08:57:21.513Z,3182.00
2022-08-17T08:57:52.796Z,3198.00
2022-08-17T08:58:52.678Z,3337.00
2022-08-17T08:59:58.161Z,3657.00
2022-08-17T09:00:52.643Z,4002.00
2022-08-17T09:01:53.537Z,3972.00
2022-08-17T09:03:52.858Z,4193.00
2022-08-17T09:05:13.051Z,4164.00
2022-08-17T09:05:46.814Z,4314.00
2022-08-17T09:06:46.845Z,4083.00
2022-08-17T09:07:46.871Z,4025.00
2022-08-17T09:08:46.890Z,4140.00
2022-08-17T09:10:37.081Z,4601.00
2022-08-17T09:12:01.786Z,4380.00
2022-08-17T09:12:38.076Z,4698.00
2022-08-17T09:13:38.057Z,4941.00
2022-08-17T09:14:45.354Z,5093.00
2022-08-17T09:15:38.095Z,5129.00
2022-08-17T09:16:38.007Z,5144.00
2022-08-17T09:17:38.025Z,5266.00
2022-08-17T09:18:59.956Z,5606.00
2022-08-17T09:19:38.019Z,6118.00
2022-08-17T09:20:38.022Z,6694.00
2022-08-17T09:21:38.003Z,7277.00
2022-08-17T09:22:37.963Z,7639.00
2022-08-17T09:23:37.978Z,8270.00
2022-08-17T09:24:37.966Z,9334.00
2022-08-17T09:25:37.918Z,10131.00
2022-08-17T09:26:37.930Z,11296.00
2022-08-17T09:27:37.934Z,11615.00
2022-08-17T09:28:37.917Z,12157.00
2022-08-17T09:29:37.909Z,13295.00
2022-08-17T09:30:37.887Z,13631.00
2022-08-17T09:31:47.089Z,14480.00
2022-08-17T09:32:38.221Z,15976.00
2022-08-17T09:34:33.075Z,17517.00
2022-08-17T09:35:36.508Z,17026.00
2022-08-17T09:36:31.800Z,16375.00
2022-08-17T09:37:31.739Z,17297.00
2022-08-17T09:38:32.691Z,20785.00
2022-08-17T09:39:31.755Z,25702.00
2022-08-17T09:41:23.079Z,78470.00
2022-08-17T09:42:24.028Z,77369.00
2022-08-17T09:43:24.004Z,64218.00
2022-08-17T09:44:24.082Z,25174.00
2022-08-17T09:45:23.970Z,19238.00
2022-08-17T09:46:23.946Z,11725.00
2022-08-17T09:47:24.026Z,30043.00
2022-08-17T09:48:24.098Z,20780.00
2022-08-17T09:50:55.415Z,20212.00
2022-08-17T09:53:06.083Z,14936.00
2022-08-17T09:54:36.818Z,15392.00
2022-08-17T09:58:11.497Z,14327.00
2022-08-17T09:58:16.667Z,15837.00
2022-08-17T09:59:16.699Z,12353.00
2022-08-17T10:00:28.189Z,11555.00
2022-08-17T10:01:16.783Z,10719.00
2022-08-17T10:02:16.620Z,10212.00
2022-08-17T10:03:16.645Z,9487.00
2022-08-17T10:04:19.990Z,9273.00
2022-08-17T10:05:16.688Z,9404.00
2022-08-17T10:06:21.733Z,9582.00
2022-08-17T10:07:16.588Z,9573.00
2022-08-17T10:08:16.601Z,9640.00
2022-08-17T10:09:16.605Z,10175.00
2022-08-17T10:10:16.547Z,10698.00
2022-08-17T10:11:16.542Z,10929.00
2022-08-17T10:12:17.398Z,11174.00
2022-08-17T10:13:16.562Z,11702.00
2022-08-17T10:14:37.054Z,12581.00
2022-08-17T10:15:17.434Z,11344.00
2022-08-17T10:16:16.488Z,14948.00
2022-08-17T10:17:16.544Z,14723.00
2022-08-17T10:18:16.451Z,12824.00
2022-08-17T10:19:16.510Z,11779.00
2022-08-17T10:20:16.474Z,10466.00
2022-08-17T10:21:16.456Z,9114.00
2022-08-17T10:22:34.477Z,8130.00
2022-08-17T10:23:16.425Z,7396.00
2022-08-17T10:24:16.465Z,7223.00
2022-08-17T10:25:22.066Z,7411.00
2022-08-17T10:26:16.402Z,7604.00
2022-08-17T10:27:16.398Z,7797.00
2022-08-17T10:28:20.309Z,7914.00
2022-08-17T10:29:16.408Z,7781.00
2022-08-17T10:30:16.417Z,7217.00
2022-08-17T10:31:34.230Z,6766.00
2022-08-17T10:32:16.334Z,6781.00
2022-08-17T10:33:16.336Z,6475.00
2022-08-17T10:34:17.327Z,5704.00
2022-08-17T10:35:20.694Z,5181.00
2022-08-17T10:37:06.638Z,4764.00
2022-08-17T10:38:07.703Z,4484.00
2022-08-17T10:39:07.632Z,4544.00
2022-08-17T10:40:07.681Z,4963.00
2022-08-17T10:41:07.664Z,5795.00
2022-08-17T10:42:07.915Z,7241.00
2022-08-17T10:43:07.609Z,9079.00
2022-08-17T10:44:38.903Z,10417.00
2022-08-17T10:45:07.613Z,11117.00
2022-08-17T10:46:26.463Z,11360.00
2022-08-17T10:47:07.564Z,11243.00
2022-08-17T10:48:07.772Z,10520.00
2022-08-17T10:49:07.544Z,9196.00
2022-08-17T10:50:08.274Z,8813.00
2022-08-17T10:51:07.685Z,8421.00
2022-08-17T10:52:07.491Z,8070.00
2022-08-17T10:53:07.477Z,7805.00
2022-08-17T10:54:07.445Z,7284.00
2022-08-17T10:55:07.479Z,6744.00
2022-08-17T10:56:07.766Z,6402.00
2022-08-17T10:57:07.426Z,6251.00
2022-08-17T10:58:07.418Z,6269.00
2022-08-17T10:59:07.419Z,6387.00
2022-08-17T11:00:07.462Z,7125.00
2022-08-17T11:01:07.600Z,7940.00
2022-08-17T11:02:07.388Z,8600.00
2022-08-17T11:03:07.370Z,9558.00
2022-08-17T11:04:07.438Z,9413.00
2022-08-17T11:05:07.349Z,17649.00
2022-08-17T11:06:07.373Z,12880.00
2022-08-17T11:07:07.376Z,11534.00
2022-08-17T11:08:07.330Z,12482.00
2022-08-17T11:09:07.334Z,14519.00
2022-08-17T11:10:07.318Z,11617.00
2022-08-17T11:11:07.296Z,21523.00
2022-08-17T11:12:07.299Z,14829.00
2022-08-17T11:13:07.290Z,30276.00
2022-08-17T11:14:07.283Z,10852.00
2022-08-17T11:15:07.278Z,80875.00
2022-08-17T11:16:08.548Z,79071.00
2022-08-17T11:17:07.229Z,77117.00
2022-08-17T11:18:07.203Z,78819.00
2022-08-17T11:19:07.203Z,77301.00
2022-08-17T11:20:07.200Z,79626.00
2022-08-17T11:21:07.246Z,80142.00
2022-08-17T11:22:07.310Z,81389.00
2022-08-17T11:23:07.291Z,80020.00
2022-08-17T11:24:07.219Z,82131.00
2022-08-17T11:25:07.179Z,77326.00
2022-08-17T11:26:07.615Z,81191.00
2022-08-17T11:27:07.155Z,78365.00
2022-08-17T11:28:07.212Z,80880.00
2022-08-17T11:29:07.419Z,76046.00
2022-08-17T11:30:08.425Z,82393.00
2022-08-17T11:31:07.532Z,81265.00
2022-08-17T11:32:33.709Z,77538.00
2022-08-17T11:33:07.299Z,76839.00
2022-08-17T11:34:07.082Z,73746.00
2022-08-17T11:35:07.067Z,75796.00
2022-08-17T11:37:24.385Z,78800.00
2022-08-17T11:38:25.389Z,80651.00
2022-08-17T11:40:41.210Z,76427.00
2022-08-17T11:41:41.700Z,80587.00
2022-08-17T11:42:41.752Z,66381.00
2022-08-17T11:43:42.913Z,10475.00
2022-08-17T11:45:52.445Z,79323.00
2022-08-17T11:47:07.042Z,67560.00
2022-08-17T11:48:23.791Z,18623.00
2022-08-17T11:48:53.370Z,64111.00
2022-08-17T11:49:53.410Z,22633.00
2022-08-17T11:50:53.368Z,17266.00
2022-08-17T11:51:53.490Z,15034.00
2022-08-17T11:52:53.565Z,19129.00
2022-08-17T11:55:31.745Z,15350.00
2022-08-17T11:56:05.755Z,16752.00
2022-08-17T11:57:05.714Z,14192.00
2022-08-17T11:58:05.750Z,12654.00
2022-08-17T11:59:05.687Z,12229.00
2022-08-17T12:00:05.697Z,10776.00
2022-08-17T12:01:06.003Z,10376.00
2022-08-17T12:02:05.672Z,10010.00
2022-08-17T12:03:05.683Z,9677.00
2022-08-17T12:04:05.700Z,10770.00
2022-08-17T12:05:11.836Z,12126.00
2022-08-17T12:06:05.633Z,12313.00
2022-08-17T12:07:05.609Z,11449.00
2022-08-17T12:08:05.870Z,11413.00
2022-08-17T12:09:05.617Z,19480.00
2022-08-17T12:10:05.614Z,15158.00
2022-08-17T12:11:05.609Z,6007.00
2022-08-17T12:12:12.763Z,36104.00
2022-08-17T12:13:05.567Z,21602.00
2022-08-17T12:14:05.581Z,21489.00
2022-08-17T12:15:10.590Z,20161.00
2022-08-17T12:16:05.594Z,20242.00
2022-08-17T12:17:05.501Z,24509.00
2022-08-17T12:18:05.509Z,20058.00
2022-08-17T12:19:05.579Z,24031.00
2022-08-17T12:20:05.556Z,26716.00
2022-08-17T12:21:05.496Z,27655.00
2022-08-17T12:22:05.531Z,22603.00
2022-08-17T12:23:05.465Z,21784.00
2022-08-17T12:24:05.456Z,22778.00
2022-08-17T12:25:34.068Z,20699.00
2022-08-17T12:26:06.179Z,17552.00
2022-08-17T12:28:29.803Z,15984.00
2022-08-17T12:32:23.150Z,13165.00
2022-08-17T12:36:05.470Z,24711.00
2022-08-17T12:37:06.433Z,14136.00
2022-08-17T12:38:06.467Z,76754.00
2022-08-17T12:39:14.095Z,75207.00
2022-08-17T12:40:06.494Z,75815.00
2022-08-17T12:41:06.389Z,77261.00
2022-08-17T12:42:07.265Z,76344.00
2022-08-17T12:43:06.370Z,73921.00
2022-08-17T12:44:06.384Z,75722.00
2022-08-17T12:45:06.350Z,73207.00
2022-08-17T12:46:13.430Z,75146.00
2022-08-17T12:47:06.325Z,75981.00
2022-08-17T12:48:06.303Z,72303.00
2022-08-17T12:49:06.323Z,72494.00
2022-08-17T12:50:06.291Z,35323.00
2022-08-17T12:52:18.108Z,75113.00
2022-08-17T12:54:12.356Z,27559.00
2022-08-17T12:55:13.177Z,9925.00
2022-08-17T12:57:13.138Z,76968.00
2022-08-17T12:59:07.814Z,76785.00
2022-08-17T13:00:08.707Z,73751.00
2022-08-17T13:01:08.753Z,74041.00
2022-08-17T13:02:08.798Z,74275.00
2022-08-17T13:03:08.703Z,73158.00
2022-08-17T13:04:08.733Z,74809.00
2022-08-17T13:05:08.693Z,74759.00
2022-08-17T13:06:08.680Z,73048.00
2022-08-17T13:07:08.766Z,72644.00
2022-08-17T13:08:08.681Z,74516.00
2022-08-17T13:09:08.745Z,66198.00
2022-08-17T13:10:08.624Z,30526.00
2022-08-17T13:11:12.171Z,26132.00
2022-08-17T13:12:27.850Z,24672.00
2022-08-17T13:13:25.401Z,23828.00
2022-08-17T13:14:32.533Z,22996.00
2022-08-17T13:15:08.576Z,23070.00